sensor_id;sensor_type;location;lat;lon;timestamp;pressure;altitude;pressure_sealevel;temperature;humidity
22582;BME280;47125;48.542;9.052;2024-01-16T00:01:51;95329.56;;;0.39;64.25
22582;BME280;47125;48.542;9.052;2024-01-16T00:11:55;95324.69;;;0.36;64.43
22582;BME280;47125;48.542;9.052;2024-01-16T00:21:58;95319.81;;;0.33;64.55
22582;BME280;47125;48.542;9.052;2024-01-16T00:32:03;95326.81;;;0.26;64.56
22582;BME280;47125;48.542;9.052;2024-01-16T00:42:05;95315.72;;;0.24;64.71
22582;BME280;47125;48.542;9.052;2024-01-16T00:52:09;95322.41;;;0.26;64.57
22582;BME280;47125;48.542;9.052;2024-01-16T01:02:12;95324.31;;;0.39;64.64
22582;BME280;47125;48.542;9.052;2024-01-16T01:12:16;95320.06;;;0.38;64.05
22582;BME280;47125;48.542;9.052;2024-01-16T01:22:18;95331.13;;;0.33;63.84
22582;BME280;47125;48.542;9.052;2024-01-16T01:32:22;95339.25;;;0.38;63.75
22582;BME280;47125;48.542;9.052;2024-01-16T01:42:25;95339.53;;;0.50;63.78
22582;BME280;47125;48.542;9.052;2024-01-16T01:52:30;95342.09;;;0.43;64.03
22582;BME280;47125;48.542;9.052;2024-01-16T02:02:32;95354.72;;;0.54;63.40
22582;BME280;47125;48.542;9.052;2024-01-16T02:12:37;95363.03;;;0.58;63.02
22582;BME280;47125;48.542;9.052;2024-01-16T02:22:39;95376.91;;;0.52;63.30
22582;BME280;47125;48.542;9.052;2024-01-16T02:32:44;95362.56;;;0.48;63.16
22582;BME280;47125;48.542;9.052;2024-01-16T02:42:47;95360.31;;;0.45;62.62
22582;BME280;47125;48.542;9.052;2024-01-16T02:52:51;95354.72;;;0.27;62.56
22582;BME280;47125;48.542;9.052;2024-01-16T03:02:53;95361.78;;;0.26;61.84
22582;BME280;47125;48.542;9.052;2024-01-16T03:12:57;95367.72;;;0.14;62.10
22582;BME280;47125;48.542;9.052;2024-01-16T03:23:00;95356.59;;;0.12;61.63
22582;BME280;47125;48.542;9.052;2024-01-16T03:33:04;95356.84;;;-0.05;61.72
22582;BME280;47125;48.542;9.052;2024-01-16T03:43:07;95356.34;;;-0.15;61.86
22582;BME280;47125;48.542;9.052;2024-01-16T03:53:11;95357.66;;;-0.25;62.08
22582;BME280;47125;48.542;9.052;2024-01-16T04:03:14;95343.31;;;-0.44;61.57
22582;BME280;47125;48.542;9.052;2024-01-16T04:13:18;95333.50;;;-0.57;61.88
22582;BME280;47125;48.542;9.052;2024-01-16T04:23:20;95336.56;;;-0.53;61.43
22582;BME280;47125;48.542;9.052;2024-01-16T04:33:24;95336.75;;;-0.54;61.25
22582;BME280;47125;48.542;9.052;2024-01-16T04:43:27;95338.28;;;-0.60;60.81
22582;BME280;47125;48.542;9.052;2024-01-16T04:53:31;95321.81;;;-0.54;61.10
22582;BME280;47125;48.542;9.052;2024-01-16T05:03:33;95329.81;;;-0.62;61.53
22582;BME280;47125;48.542;9.052;2024-01-16T05:13:37;95325.00;;;-0.59;61.40
22582;BME280;47125;48.542;9.052;2024-01-16T05:23:39;95297.28;;;-0.68;61.08
22582;BME280;47125;48.542;9.052;2024-01-16T05:33:43;95299.81;;;-0.74;61.00
22582;BME280;47125;48.542;9.052;2024-01-16T05:43:46;95297.50;;;-0.84;61.33
22582;BME280;47125;48.542;9.052;2024-01-16T05:53:51;95286.59;;;-1.02;61.92
22582;BME280;47125;48.542;9.052;2024-01-16T06:03:53;95293.94;;;-1.12;61.64
22582;BME280;47125;48.542;9.052;2024-01-16T06:13:57;95296.63;;;-1.20;61.57
22582;BME280;47125;48.542;9.052;2024-01-16T06:24:00;95303.25;;;-1.24;61.60
22582;BME280;47125;48.542;9.052;2024-01-16T06:34:04;95298.56;;;-1.29;62.06
22582;BME280;47125;48.542;9.052;2024-01-16T06:44:06;95298.91;;;-1.32;62.24
22582;BME280;47125;48.542;9.052;2024-01-16T06:54:10;95310.56;;;-1.34;61.22
22582;BME280;47125;48.542;9.052;2024-01-16T07:04:13;95308.50;;;-1.39;61.44
22582;BME280;47125;48.542;9.052;2024-01-16T07:14:17;95296.75;;;-1.43;60.55
22582;BME280;47125;48.542;9.052;2024-01-16T07:24:20;95293.78;;;-1.40;60.72
22582;BME280;47125;48.542;9.052;2024-01-16T07:34:24;95300.19;;;-1.28;60.19
22582;BME280;47125;48.542;9.052;2024-01-16T07:44:27;95297.53;;;-0.63;59.61
22582;BME280;47125;48.542;9.052;2024-01-16T07:54:31;95303.66;;;-0.91;59.29
22582;BME280;47125;48.542;9.052;2024-01-16T08:04:33;95303.41;;;-0.96;60.00
22582;BME280;47125;48.542;9.052;2024-01-16T08:14:37;95301.88;;;-1.05;60.99
22582;BME280;47125;48.542;9.052;2024-01-16T08:24:39;95298.63;;;-1.07;60.74
22582;BME280;47125;48.542;9.052;2024-01-16T08:34:43;95301.16;;;-0.99;59.97
22582;BME280;47125;48.542;9.052;2024-01-16T08:44:48;95310.59;;;-0.84;59.55
22582;BME280;47125;48.542;9.052;2024-01-16T08:54:52;95318.53;;;-0.77;58.14
22582;BME280;47125;48.542;9.052;2024-01-16T09:04:55;95312.38;;;-0.34;58.61
22582;BME280;47125;48.542;9.052;2024-01-16T09:14:58;95303.84;;;-0.15;57.11
22582;BME280;47125;48.542;9.052;2024-01-16T09:25:01;95301.47;;;0.12;56.67
22582;BME280;47125;48.542;9.052;2024-01-16T09:35:05;95302.94;;;0.48;55.71
22582;BME280;47125;48.542;9.052;2024-01-16T09:45:10;95300.03;;;1.05;55.30
22582;BME280;47125;48.542;9.052;2024-01-16T09:55:14;95301.09;;;1.18;54.66
22582;BME280;47125;48.542;9.052;2024-01-16T10:05:17;95288.97;;;1.17;54.51
22582;BME280;47125;48.542;9.052;2024-01-16T10:15:21;95277.25;;;1.19;54.66
22582;BME280;47125;48.542;9.052;2024-01-16T10:25:24;95270.19;;;1.20;55.27
22582;BME280;47125;48.542;9.052;2024-01-16T10:35:28;95271.03;;;1.33;56.58
22582;BME280;47125;48.542;9.052;2024-01-16T10:45:31;95264.25;;;2.04;54.36
22582;BME280;47125;48.542;9.052;2024-01-16T10:55:37;95257.13;;;2.51;53.64
22582;BME280;47125;48.542;9.052;2024-01-16T11:05:42;95246.63;;;3.15;52.02
22582;BME280;47125;48.542;9.052;2024-01-16T11:15:47;95242.56;;;3.50;50.81
22582;BME280;47125;48.542;9.052;2024-01-16T11:25:51;95214.72;;;4.35;47.51
22582;BME280;47125;48.542;9.052;2024-01-16T11:35:55;95229.31;;;4.80;46.48
22582;BME280;47125;48.542;9.052;2024-01-16T11:45:58;95197.53;;;6.29;44.68
22582;BME280;47125;48.542;9.052;2024-01-16T11:56:08;95178.13;;;6.52;42.45
22582;BME280;47125;48.542;9.052;2024-01-16T12:06:15;95153.97;;;7.00;40.60
22582;BME280;47125;48.542;9.052;2024-01-16T12:16:20;95149.75;;;7.89;40.72
22582;BME280;47125;48.542;9.052;2024-01-16T12:26:22;95142.97;;;7.98;38.38
22582;BME280;47125;48.542;9.052;2024-01-16T12:36:26;95117.72;;;9.37;36.49
22582;BME280;47125;48.542;9.052;2024-01-16T12:46:29;95100.31;;;9.56;34.75
22582;BME280;47125;48.542;9.052;2024-01-16T12:56:34;95082.22;;;9.90;35.29
22582;BME280;47125;48.542;9.052;2024-01-16T13:06:39;95081.66;;;9.56;33.35
22582;BME280;47125;48.542;9.052;2024-01-16T13:16:46;95074.56;;;9.67;35.33
22582;BME280;47125;48.542;9.052;2024-01-16T13:26:49;95064.22;;;9.17;35.59
22582;BME280;47125;48.542;9.052;2024-01-16T13:36:53;95051.84;;;8.19;36.52
22582;BME280;47125;48.542;9.052;2024-01-16T13:47:16;95050.75;;;7.82;37.13
22582;BME280;47125;48.542;9.052;2024-01-16T13:57:24;95043.50;;;7.60;36.57
22582;BME280;47125;48.542;9.052;2024-01-16T14:07:27;95035.13;;;6.34;40.09
22582;BME280;47125;48.542;9.052;2024-01-16T14:17:31;95022.50;;;6.41;39.46
22582;BME280;47125;48.542;9.052;2024-01-16T14:27:35;95023.16;;;6.59;39.44
22582;BME280;47125;48.542;9.052;2024-01-16T14:37:39;95018.63;;;7.16;38.27
22582;BME280;47125;48.542;9.052;2024-01-16T14:47:41;95007.50;;;5.95;39.46
22582;BME280;47125;48.542;9.052;2024-01-16T14:57:47;95012.75;;;5.14;41.71
22582;BME280;47125;48.542;9.052;2024-01-16T15:07:54;95015.78;;;4.87;42.04
22582;BME280;47125;48.542;9.052;2024-01-16T15:17:58;95019.16;;;4.35;43.36
22582;BME280;47125;48.542;9.052;2024-01-16T15:28:01;95018.38;;;4.16;45.06
22582;BME280;47125;48.542;9.052;2024-01-16T15:38:06;95014.69;;;3.63;46.97
22582;BME280;47125;48.542;9.052;2024-01-16T15:48:09;95017.19;;;3.33;46.63
22582;BME280;47125;48.542;9.052;2024-01-16T15:58:13;95034.06;;;2.76;48.61
22582;BME280;47125;48.542;9.052;2024-01-16T16:08:15;95030.78;;;2.43;49.77
22582;BME280;47125;48.542;9.052;2024-01-16T16:18:19;95043.56;;;2.39;50.62
22582;BME280;47125;48.542;9.052;2024-01-16T16:28:22;95033.69;;;2.28;50.87
22582;BME280;47125;48.542;9.052;2024-01-16T16:38:25;95039.41;;;2.18;51.32
22582;BME280;47125;48.542;9.052;2024-01-16T16:48:28;95041.16;;;1.80;51.97
22582;BME280;47125;48.542;9.052;2024-01-16T16:58:32;95033.50;;;1.59;51.78
22582;BME280;47125;48.542;9.052;2024-01-16T17:08:35;95037.72;;;1.60;52.40
22582;BME280;47125;48.542;9.052;2024-01-16T17:18:39;95023.00;;;1.46;52.89
22582;BME280;47125;48.542;9.052;2024-01-16T17:28:43;95026.66;;;1.12;54.14
22582;BME280;47125;48.542;9.052;2024-01-16T17:38:47;95028.28;;;1.00;53.95
22582;BME280;47125;48.542;9.052;2024-01-16T17:48:56;95009.50;;;0.90;54.58
22582;BME280;47125;48.542;9.052;2024-01-16T17:59:00;95004.03;;;0.72;55.26
22582;BME280;47125;48.542;9.052;2024-01-16T18:09:05;95008.84;;;0.88;56.15
22582;BME280;47125;48.542;9.052;2024-01-16T18:19:12;94999.56;;;0.85;56.92
22582;BME280;47125;48.542;9.052;2024-01-16T18:29:15;94990.47;;;0.75;56.53
22582;BME280;47125;48.542;9.052;2024-01-16T18:39:19;94965.22;;;0.74;56.28
22582;BME280;47125;48.542;9.052;2024-01-16T18:49:23;94953.06;;;0.53;57.81
22582;BME280;47125;48.542;9.052;2024-01-16T18:59:27;94943.34;;;0.34;58.12
22582;BME280;47125;48.542;9.052;2024-01-16T19:09:30;94928.81;;;0.38;58.85
22582;BME280;47125;48.542;9.052;2024-01-16T19:19:39;94919.88;;;0.13;58.40
22582;BME280;47125;48.542;9.052;2024-01-16T19:29:42;94889.97;;;-0.13;59.09
22582;BME280;47125;48.542;9.052;2024-01-16T19:39:46;94888.72;;;-0.30;58.91
22582;BME280;47125;48.542;9.052;2024-01-16T19:49:48;94869.91;;;-0.46;59.97
22582;BME280;47125;48.542;9.052;2024-01-16T19:59:52;94857.00;;;-0.41;59.86
22582;BME280;47125;48.542;9.052;2024-01-16T20:09:55;94843.72;;;-0.40;59.04
22582;BME280;47125;48.542;9.052;2024-01-16T20:19:59;94837.44;;;-0.52;59.39
22582;BME280;47125;48.542;9.052;2024-01-16T20:30:01;94821.09;;;-0.41;59.69
22582;BME280;47125;48.542;9.052;2024-01-16T20:40:09;94810.38;;;-0.59;60.23
22582;BME280;47125;48.542;9.052;2024-01-16T20:50:11;94810.38;;;-0.59;60.11
22582;BME280;47125;48.542;9.052;2024-01-16T21:00:15;94790.78;;;-0.63;60.16
22582;BME280;47125;48.542;9.052;2024-01-16T21:10:18;94771.06;;;-0.52;60.45
22582;BME280;47125;48.542;9.052;2024-01-16T21:20:22;94761.91;;;-0.89;61.18
22582;BME280;47125;48.542;9.052;2024-01-16T21:30:24;94753.00;;;-1.01;61.03
22582;BME280;47125;48.542;9.052;2024-01-16T21:40:29;94752.63;;;-0.92;60.82
22582;BME280;47125;48.542;9.052;2024-01-16T21:50:31;94741.41;;;-0.73;61.28
22582;BME280;47125;48.542;9.052;2024-01-16T22:00:40;94716.00;;;-0.72;61.85
22582;BME280;47125;48.542;9.052;2024-01-16T22:10:42;94707.31;;;-0.86;62.47
22582;BME280;47125;48.542;9.052;2024-01-16T22:20:46;94692.03;;;-0.69;63.68
22582;BME280;47125;48.542;9.052;2024-01-16T22:30:49;94679.31;;;-0.66;63.30
22582;BME280;47125;48.542;9.052;2024-01-16T22:40:52;94674.88;;;-0.65;63.27
22582;BME280;47125;48.542;9.052;2024-01-16T22:50:55;94655.13;;;-0.61;63.38
22582;BME280;47125;48.542;9.052;2024-01-16T23:00:59;94657.09;;;-0.89;65.08
22582;BME280;47125;48.542;9.052;2024-01-16T23:11:02;94666.22;;;-0.79;63.54
22582;BME280;47125;48.542;9.052;2024-01-16T23:21:11;94620.22;;;-1.01;64.41
22582;BME280;47125;48.542;9.052;2024-01-16T23:31:14;94592.81;;;-0.98;64.99
22582;BME280;47125;48.542;9.052;2024-01-16T23:41:19;94586.59;;;-0.91;65.10
22582;BME280;47125;48.542;9.052;2024-01-16T23:51:21;94553.94;;;-0.95;65.45
